createdAt,value
2023-01-06T00:00:03.019Z,0.00
2023-01-06T00:05:02.947Z,0.00
2023-01-06T00:10:02.872Z,0.00
2023-01-06T00:15:02.806Z,0.00
2023-01-06T00:20:02.734Z,0.00
2023-01-06T00:25:02.672Z,0.00
2023-01-06T00:30:02.588Z,0.00
2023-01-06T00:35:02.525Z,0.00
2023-01-06T00:40:02.454Z,0.00
2023-01-06T00:45:02.382Z,0.00
2023-01-06T00:50:02.313Z,0.00
2023-01-06T00:55:02.235Z,0.00
2023-01-06T01:00:02.197Z,0.00
2023-01-06T01:05:02.111Z,0.00
2023-01-06T01:10:02.023Z,0.00
2023-01-06T01:15:01.953Z,0.00
2023-01-06T01:20:01.892Z,4.88
2023-01-06T01:25:01.846Z,0.00
2023-01-06T01:30:01.765Z,0.00
2023-01-06T01:35:01.686Z,0.00
2023-01-06T01:40:01.619Z,0.00
2023-01-06T01:45:01.557Z,0.00
2023-01-06T01:50:01.493Z,0.00
2023-01-06T01:55:01.437Z,0.00
2023-01-06T02:00:01.364Z,0.00
2023-01-06T02:05:01.302Z,4.88
2023-01-06T02:10:01.328Z,0.00
2023-01-06T02:15:01.187Z,0.00
2023-01-06T02:20:01.135Z,0.00
2023-01-06T02:25:01.071Z,0.00
2023-01-06T02:30:00.979Z,0.00
2023-01-06T02:35:00.938Z,0.00
2023-01-06T02:40:00.935Z,0.00
2023-01-06T02:45:00.790Z,0.00
2023-01-06T02:50:00.737Z,0.00
2023-01-06T02:55:00.660Z,0.00
2023-01-06T03:00:00.615Z,0.00
2023-01-06T03:05:00.541Z,0.00
2023-01-06T03:10:00.491Z,4.88
2023-01-06T03:15:00.459Z,0.00
2023-01-06T03:20:00.346Z,4.88
2023-01-06T03:25:00.337Z,0.00
2023-01-06T03:30:00.245Z,0.00
2023-01-06T03:35:00.163Z,0.00
2023-01-06T03:40:00.141Z,0.00
2023-01-06T03:45:00.043Z,0.00
2023-01-06T03:49:59.972Z,0.00
2023-01-06T03:54:59.913Z,0.00
2023-01-06T03:59:59.858Z,4.88
2023-01-06T04:04:59.782Z,4.88
2023-01-06T04:09:59.714Z,0.00
2023-01-06T04:14:59.708Z,0.00
2023-01-06T04:19:59.606Z,0.00
2023-01-06T04:24:59.540Z,0.00
2023-01-06T04:29:59.480Z,4.88
2023-01-06T04:34:59.404Z,4.88
2023-01-06T04:39:59.333Z,0.00
2023-01-06T04:44:59.281Z,0.00
2023-01-06T04:49:59.217Z,0.00
2023-01-06T04:54:59.160Z,4.88
2023-01-06T04:59:59.090Z,0.00
2023-01-06T05:04:59.019Z,0.00
2023-01-06T05:09:59.016Z,0.00
2023-01-06T05:14:58.913Z,0.00
2023-01-06T05:19:58.850Z,0.00
2023-01-06T05:24:58.768Z,0.00
2023-01-06T05:29:58.687Z,0.00
2023-01-06T05:34:58.657Z,0.00
2023-01-06T05:39:58.570Z,4.88
2023-01-06T05:44:58.512Z,4.88
2023-01-06T05:49:58.447Z,0.00
2023-01-06T05:54:58.409Z,0.00
2023-01-06T05:59:58.340Z,0.00
2023-01-06T06:04:58.260Z,0.00
2023-01-06T06:09:58.190Z,0.00
2023-01-06T06:14:58.136Z,0.00
2023-01-06T06:19:58.052Z,0.00
2023-01-06T06:24:58.005Z,0.00
2023-01-06T06:29:57.928Z,0.00
2023-01-06T06:34:57.874Z,0.00
2023-01-06T06:39:57.887Z,0.00
2023-01-06T06:44:57.739Z,0.00
2023-01-06T06:49:57.671Z,0.00
2023-01-06T06:54:57.612Z,4.88
2023-01-06T06:59:57.570Z,0.00
2023-01-06T07:04:57.486Z,4.88
2023-01-06T07:09:57.418Z,0.00
2023-01-06T07:14:57.372Z,0.00
2023-01-06T07:19:57.304Z,0.00
2023-01-06T07:24:57.255Z,0.00
2023-01-06T07:29:57.167Z,0.00
2023-01-06T07:34:57.138Z,4.88
2023-01-06T07:39:57.060Z,0.00
2023-01-06T07:44:56.986Z,0.00
2023-01-06T07:49:56.905Z,0.00
2023-01-06T07:54:56.847Z,0.00
2023-01-06T07:59:56.775Z,0.00
2023-01-06T08:04:58.833Z,0.00
2023-01-06T08:09:56.645Z,0.00
2023-01-06T08:14:56.596Z,4.88
2023-01-06T08:19:56.516Z,0.00
2023-01-06T08:24:56.477Z,0.00
2023-01-06T08:29:56.388Z,0.00
2023-01-06T08:34:56.334Z,0.00
2023-01-06T08:39:56.276Z,0.00
2023-01-06T08:44:56.351Z,4.88
2023-01-06T08:49:56.147Z,0.00
2023-01-06T08:54:56.094Z,0.00
2023-01-06T08:59:56.024Z,0.00
2023-01-06T09:04:56.020Z,4.88
2023-01-06T09:09:55.881Z,0.00
2023-01-06T09:14:55.886Z,0.00
2023-01-06T09:19:55.760Z,0.00
2023-01-06T09:24:55.699Z,0.00
2023-01-06T09:29:55.640Z,0.00
2023-01-06T09:34:55.573Z,0.00
2023-01-06T09:39:55.505Z,0.00
2023-01-06T09:44:55.431Z,4.88
2023-01-06T09:49:55.380Z,0.00
2023-01-06T09:54:55.315Z,0.00
2023-01-06T09:59:55.252Z,0.00
2023-01-06T10:04:55.203Z,0.00
2023-01-06T10:09:55.145Z,4.88
2023-01-06T10:14:55.073Z,0.00
2023-01-06T10:19:55.001Z,4.88
2023-01-06T10:24:54.934Z,0.00
2023-01-06T10:29:54.877Z,0.00
2023-01-06T10:34:54.824Z,4.88
2023-01-06T10:39:54.763Z,0.00
2023-01-06T10:44:54.676Z,0.00
2023-01-06T10:49:54.625Z,0.00
2023-01-06T10:54:54.556Z,0.00
2023-01-06T10:59:54.486Z,0.00
2023-01-06T11:04:54.428Z,4.88
2023-01-06T11:09:54.357Z,0.00
2023-01-06T11:14:54.321Z,0.00
2023-01-06T11:19:54.273Z,0.00
2023-01-06T11:24:54.237Z,0.00
2023-01-06T11:29:54.131Z,0.00
2023-01-06T11:34:54.050Z,0.00
2023-01-06T11:40:00.577Z,0.00
2023-01-06T11:44:54.919Z,0.00
2023-01-06T11:49:53.873Z,0.00
2023-01-06T11:54:53.791Z,0.00
2023-01-06T11:59:53.751Z,0.00
2023-01-06T12:04:53.663Z,0.00
2023-01-06T12:09:53.596Z,0.00
2023-01-06T12:14:53.542Z,0.00
2023-01-06T12:19:53.485Z,0.00
2023-01-06T12:24:53.416Z,4.88
2023-01-06T12:29:53.355Z,0.00
2023-01-06T12:34:53.300Z,0.00
2023-01-06T12:39:53.221Z,0.00
2023-01-06T12:44:53.174Z,0.00
2023-01-06T12:49:53.114Z,4.88
2023-01-06T12:54:53.037Z,0.00
2023-01-06T12:59:52.965Z,0.00
2023-01-06T13:04:52.925Z,0.00
2023-01-06T13:09:52.844Z,0.00
2023-01-06T13:14:52.789Z,0.00
2023-01-06T13:19:52.768Z,0.00
2023-01-06T13:24:52.667Z,0.00
2023-01-06T13:29:52.586Z,0.00
2023-01-06T13:34:52.541Z,0.00
2023-01-06T13:39:52.464Z,0.00
2023-01-06T13:44:52.410Z,0.00
2023-01-06T13:49:52.339Z,0.00
2023-01-06T13:54:52.286Z,0.00
2023-01-06T13:59:52.238Z,1127.28
2023-01-06T14:04:52.181Z,1220.00
2023-01-06T14:09:52.091Z,1068.72
2023-01-06T14:14:52.016Z,1151.68
2023-01-06T14:19:51.949Z,1083.36
2023-01-06T14:24:51.922Z,1224.88
2023-01-06T14:29:51.828Z,1200.48
2023-01-06T14:34:51.761Z,888.16
2023-01-06T14:39:51.695Z,893.04
2023-01-06T14:44:51.656Z,912.56
2023-01-06T14:49:51.566Z,834.48
2023-01-06T14:54:51.503Z,829.60
2023-01-06T14:59:51.442Z,785.68
2023-01-06T15:04:51.375Z,761.28
2023-01-06T15:09:51.311Z,644.16
2023-01-06T15:14:51.282Z,619.76
2023-01-06T15:19:51.187Z,590.48
2023-01-06T15:24:51.148Z,483.12
2023-01-06T15:29:51.052Z,488.00
2023-01-06T15:34:51.069Z,502.64
2023-01-06T15:39:50.934Z,517.28
2023-01-06T15:44:50.873Z,492.88
2023-01-06T15:49:50.848Z,507.52
2023-01-06T15:54:50.739Z,536.80
2023-01-06T15:59:50.675Z,507.52
2023-01-06T16:04:50.680Z,429.44
2023-01-06T16:09:50.558Z,434.32
2023-01-06T16:14:50.521Z,439.20
2023-01-06T16:19:50.425Z,390.40
2023-01-06T16:24:50.357Z,400.16
2023-01-06T16:29:50.293Z,444.08
2023-01-06T16:34:50.526Z,463.60
2023-01-06T16:39:50.202Z,424.56
2023-01-06T16:44:50.170Z,444.08
2023-01-06T16:49:50.057Z,439.20
2023-01-06T16:54:49.977Z,434.32
2023-01-06T16:59:49.946Z,580.72
2023-01-06T17:04:49.960Z,629.52
2023-01-06T17:09:49.789Z,600.24
2023-01-06T17:14:49.762Z,605.12
2023-01-06T17:19:49.658Z,605.12
2023-01-06T17:24:49.602Z,629.52
2023-01-06T17:29:49.560Z,741.76
2023-01-06T17:34:49.567Z,717.36
2023-01-06T17:39:49.407Z,727.12
2023-01-06T17:44:49.341Z,785.68
2023-01-06T17:49:49.268Z,805.20
2023-01-06T17:54:49.221Z,814.96
2023-01-06T17:59:49.140Z,824.72
2023-01-06T18:04:49.089Z,819.84
2023-01-06T18:09:49.031Z,834.48
2023-01-06T18:14:48.959Z,834.48
2023-01-06T18:19:48.898Z,844.24
2023-01-06T18:24:48.831Z,849.12
2023-01-06T18:29:48.776Z,858.88
2023-01-06T18:34:48.712Z,795.44
2023-01-06T18:39:48.651Z,805.20
2023-01-06T18:44:48.587Z,805.20
2023-01-06T18:49:48.517Z,795.44
2023-01-06T18:54:48.461Z,795.44
2023-01-06T18:59:48.387Z,819.84
2023-01-06T19:04:48.376Z,980.88
2023-01-06T19:09:48.262Z,976.00
2023-01-06T19:14:48.208Z,941.84
2023-01-06T19:19:48.131Z,902.80
2023-01-06T19:24:48.088Z,990.64
2023-01-06T19:29:48.016Z,1000.40
2023-01-06T19:34:47.954Z,985.76
2023-01-06T19:39:47.882Z,990.64
2023-01-06T19:44:47.856Z,985.76
2023-01-06T19:49:47.755Z,1000.40
2023-01-06T19:54:47.698Z,1015.04
2023-01-06T19:59:47.625Z,0.00
2023-01-06T20:04:47.565Z,0.00
2023-01-06T20:09:47.513Z,4.88
2023-01-06T20:14:47.437Z,4.88
2023-01-06T20:19:47.372Z,0.00
2023-01-06T20:24:48.372Z,0.00
2023-01-06T20:29:47.245Z,0.00
2023-01-06T20:34:47.178Z,0.00
2023-01-06T20:39:47.138Z,0.00
2023-01-06T20:44:47.065Z,0.00
2023-01-06T20:49:46.984Z,0.00
2023-01-06T20:54:46.918Z,4.88
2023-01-06T20:59:46.869Z,0.00
2023-01-06T21:04:46.790Z,0.00
2023-01-06T21:09:46.743Z,0.00
2023-01-06T21:14:46.670Z,0.00
2023-01-06T21:19:46.609Z,0.00
2023-01-06T21:24:46.541Z,0.00
2023-01-06T21:29:46.480Z,0.00
2023-01-06T21:34:46.423Z,0.00
2023-01-06T21:39:48.002Z,0.00
2023-01-06T21:44:46.286Z,0.00
2023-01-06T21:49:46.224Z,0.00
2023-01-06T21:54:46.151Z,0.00
2023-01-06T21:59:46.107Z,0.00
2023-01-06T22:04:46.032Z,0.00
2023-01-06T22:09:45.981Z,4.88
2023-01-06T22:14:45.911Z,0.00
2023-01-06T22:19:45.843Z,4.88
2023-01-06T22:24:45.787Z,0.00
2023-01-06T22:29:45.722Z,0.00
2023-01-06T22:34:45.642Z,0.00
2023-01-06T22:39:45.592Z,0.00
2023-01-06T22:44:45.519Z,0.00
2023-01-06T22:49:45.477Z,0.00
2023-01-06T22:54:45.399Z,0.00
2023-01-06T22:59:45.342Z,0.00
2023-01-06T23:04:45.266Z,0.00
2023-01-06T23:09:45.224Z,0.00
2023-01-06T23:14:45.135Z,0.00
2023-01-06T23:19:45.077Z,0.00
2023-01-06T23:24:45.010Z,0.00
2023-01-06T23:29:44.948Z,0.00
2023-01-06T23:34:44.880Z,0.00
2023-01-06T23:39:44.831Z,0.00
2023-01-06T23:44:44.759Z,0.00
2023-01-06T23:49:44.698Z,0.00
2023-01-06T23:54:44.652Z,0.00
2023-01-06T23:59:44.572Z,0.00
